createdAt,value
2017-01-18T00:00:00.462Z,0
2017-01-18T00:01:00.488Z,0
2017-01-18T00:02:00.257Z,0
2017-01-18T00:03:00.559Z,0
2017-01-18T00:04:00.565Z,0
2017-01-18T00:05:00.081Z,0
2017-01-18T00:05:59.744Z,0
2017-01-18T00:06:59.691Z,0
2017-01-18T00:08:01.506Z,0
2017-01-18T00:09:00.144Z,0
2017-01-18T00:10:00.665Z,0
2017-01-18T00:11:00.225Z,0
2017-01-18T00:12:00.579Z,0
2017-01-18T00:12:59.828Z,0
2017-01-18T00:14:00.600Z,0
2017-01-18T00:14:59.761Z,0
2017-01-18T00:16:00.263Z,0
2017-01-18T00:16:59.775Z,0
2017-01-18T00:18:00.182Z,0
2017-01-18T00:19:01.526Z,0
2017-01-18T00:20:00.192Z,0
2017-01-18T00:21:00.654Z,0
2017-01-18T00:22:00.239Z,0
2017-01-18T00:23:00.265Z,0
2017-01-18T00:23:59.936Z,0
2017-01-18T00:25:00.634Z,0
2017-01-18T00:26:00.296Z,0
2017-01-18T00:26:59.466Z,0
2017-01-18T00:28:00.899Z,0
2017-01-18T00:29:01.108Z,0
2017-01-18T00:30:01.524Z,0
2017-01-18T00:31:00.686Z,0
2017-01-18T00:32:00.747Z,0
2017-01-18T00:32:59.951Z,0
2017-01-18T00:34:01.002Z,0
2017-01-18T00:35:00.496Z,0
2017-01-18T00:36:00.376Z,0
2017-01-18T00:37:00.729Z,0
2017-01-18T00:37:59.990Z,0
2017-01-18T00:39:01.501Z,0
2017-01-18T00:39:59.558Z,0
2017-01-18T00:41:01.017Z,0
2017-01-18T00:41:59.575Z,0
2017-01-18T00:43:00.774Z,0
2017-01-18T00:44:00.791Z,0
2017-01-18T00:45:00.053Z,0
2017-01-18T00:46:01.199Z,0
2017-01-18T00:47:00.414Z,0
2017-01-18T00:48:00.821Z,0
2017-01-18T00:49:00.026Z,0
2017-01-18T00:50:00.792Z,0
2017-01-18T00:51:01.286Z,0
2017-01-18T00:52:01.243Z,0
2017-01-18T00:53:00.159Z,0
2017-01-18T00:54:00.863Z,0
2017-01-18T00:55:01.267Z,0
2017-01-18T00:56:00.132Z,0
2017-01-18T00:57:00.139Z,0
2017-01-18T00:58:00.551Z,0
2017-01-18T00:59:00.901Z,0
2017-01-18T01:00:00.905Z,0
2017-01-18T01:01:02.263Z,0
2017-01-18T01:02:00.629Z,0
2017-01-18T01:03:01.431Z,0
2017-01-18T01:04:00.943Z,0
2017-01-18T01:05:00.996Z,0
2017-01-18T01:06:01.351Z,0
2017-01-18T01:07:01.010Z,0
2017-01-18T01:08:01.413Z,0
2017-01-18T01:09:00.681Z,0
2017-01-18T01:10:00.656Z,0
2017-01-18T01:11:01.442Z,0
2017-01-18T01:12:01.309Z,0
2017-01-18T01:13:00.660Z,0
2017-01-18T01:14:01.317Z,0
2017-01-18T01:15:01.029Z,0
2017-01-18T01:16:02.490Z,0
2017-01-18T01:17:01.046Z,0
2017-01-18T01:18:01.153Z,0
2017-01-18T01:19:00.709Z,0
2017-01-18T01:20:00.715Z,0
2017-01-18T01:21:00.327Z,0
2017-01-18T01:22:00.731Z,0
2017-01-18T01:23:01.006Z,0
2017-01-18T01:24:00.301Z,0
2017-01-18T01:25:01.558Z,0
2017-01-18T01:26:00.371Z,0
2017-01-18T01:27:01.165Z,0
2017-01-18T01:28:00.826Z,0
2017-01-18T01:29:01.577Z,0
2017-01-18T01:30:01.192Z,0
2017-01-18T01:31:00.400Z,0
2017-01-18T01:32:00.760Z,0
2017-01-18T01:33:01.556Z,0
2017-01-18T01:34:01.031Z,0
2017-01-18T01:35:01.177Z,0
2017-01-18T01:36:01.440Z,0
2017-01-18T01:37:00.501Z,0
2017-01-18T01:38:00.917Z,0
2017-01-18T01:39:00.465Z,0
2017-01-18T01:40:00.869Z,0
2017-01-18T01:41:01.274Z,0
2017-01-18T01:42:01.628Z,0
2017-01-18T01:43:00.448Z,0
2017-01-18T01:44:01.302Z,0
2017-01-18T01:45:01.572Z,0
2017-01-18T01:46:01.311Z,0
2017-01-18T01:47:01.620Z,0
2017-01-18T01:48:00.535Z,0
2017-01-18T01:49:01.143Z,0
2017-01-18T01:50:01.195Z,0
2017-01-18T01:51:00.525Z,0
2017-01-18T01:52:01.317Z,0
2017-01-18T01:53:00.916Z,0
2017-01-18T01:54:01.424Z,0
2017-01-18T01:55:01.431Z,0
2017-01-18T01:56:02.343Z,0
2017-01-18T01:57:01.056Z,0
2017-01-18T01:58:01.937Z,0
2017-01-18T01:59:00.971Z,0
2017-01-18T02:00:01.381Z,0
2017-01-18T02:01:01.954Z,0
2017-01-18T02:02:01.440Z,0
2017-01-18T02:03:01.003Z,0
2017-01-18T02:04:01.059Z,0
2017-01-18T02:05:01.460Z,0
2017-01-18T02:06:01.122Z,0
2017-01-18T02:07:02.194Z,0
2017-01-18T02:08:01.588Z,0
2017-01-18T02:09:02.298Z,0
2017-01-18T02:10:01.449Z,0
2017-01-18T02:11:01.903Z,0
2017-01-18T02:12:01.171Z,0
2017-01-18T02:13:01.227Z,0
2017-01-18T02:14:01.578Z,0
2017-01-18T02:15:01.933Z,0
2017-01-18T02:16:00.307Z,0
2017-01-18T02:17:00.711Z,0
2017-01-18T02:18:01.941Z,0
2017-01-18T02:19:01.566Z,0
2017-01-18T02:20:01.884Z,0
2017-01-18T02:21:01.235Z,0
2017-01-18T02:22:01.450Z,0
2017-01-18T02:23:01.501Z,0
2017-01-18T02:24:01.212Z,0
2017-01-18T02:25:01.223Z,0
2017-01-18T02:26:01.228Z,0
2017-01-18T02:27:02.026Z,0
2017-01-18T02:28:01.190Z,0
2017-01-18T02:29:02.298Z,0
2017-01-18T02:30:02.047Z,0
2017-01-18T02:31:01.817Z,0
2017-01-18T02:32:01.227Z,0
2017-01-18T02:33:01.484Z,0
2017-01-18T02:34:02.079Z,0
2017-01-18T02:35:01.745Z,0
2017-01-18T02:36:01.653Z,0
2017-01-18T02:37:01.411Z,0
2017-01-18T02:38:01.271Z,0
2017-01-18T02:39:01.722Z,0
2017-01-18T02:40:02.479Z,0
2017-01-18T02:41:01.394Z,0
2017-01-18T02:42:01.651Z,0
2017-01-18T02:43:01.754Z,0
2017-01-18T02:44:01.315Z,0
2017-01-18T02:45:00.978Z,0
2017-01-18T02:46:00.937Z,0
2017-01-18T02:47:01.446Z,0
2017-01-18T02:48:01.795Z,0
2017-01-18T02:49:01.356Z,0
2017-01-18T02:50:01.409Z,0
2017-01-18T02:51:02.518Z,0
2017-01-18T02:52:01.083Z,0
2017-01-18T02:53:01.836Z,0
2017-01-18T02:54:01.840Z,0
2017-01-18T02:55:01.360Z,0
2017-01-18T02:56:01.859Z,0
2017-01-18T02:57:01.413Z,0
2017-01-18T02:58:01.872Z,0
2017-01-18T02:59:01.439Z,0
2017-01-18T03:00:01.143Z,0
2017-01-18T03:01:01.154Z,0
2017-01-18T03:02:02.355Z,0
2017-01-18T03:03:01.118Z,0
2017-01-18T03:04:01.481Z,0
2017-01-18T03:05:01.954Z,0
2017-01-18T03:06:03.781Z,0
2017-01-18T03:07:01.595Z,0
2017-01-18T03:08:02.002Z,0
2017-01-18T03:09:01.906Z,0
2017-01-18T03:10:01.516Z,0
2017-01-18T03:11:01.523Z,0
2017-01-18T03:12:02.481Z,0
2017-01-18T03:13:03.032Z,0
2017-01-18T03:14:01.650Z,0
2017-01-18T03:15:02.207Z,0
2017-01-18T03:16:02.417Z,0
2017-01-18T03:17:01.623Z,0
2017-01-18T03:18:00.835Z,0
2017-01-18T03:19:02.039Z,0
2017-01-18T03:20:01.675Z,0
2017-01-18T03:21:02.004Z,0
2017-01-18T03:22:01.663Z,0
2017-01-18T03:23:01.669Z,0
2017-01-18T03:24:02.523Z,0
2017-01-18T03:25:01.289Z,0
2017-01-18T03:26:01.854Z,0
2017-01-18T03:27:01.357Z,0
2017-01-18T03:28:03.909Z,0
2017-01-18T03:29:02.058Z,0
2017-01-18T03:30:01.279Z,0
2017-01-18T03:31:02.576Z,0
2017-01-18T03:32:02.163Z,0
2017-01-18T03:33:02.096Z,0
2017-01-18T03:34:01.755Z,0
2017-01-18T03:35:02.959Z,0
2017-01-18T03:36:02.167Z,0
2017-01-18T03:37:01.679Z,0
2017-01-18T03:38:02.130Z,0
2017-01-18T03:39:02.186Z,0
2017-01-18T03:40:02.244Z,0
2017-01-18T03:41:01.761Z,0
2017-01-18T03:42:02.158Z,0
2017-01-18T03:43:01.870Z,0
2017-01-18T03:44:01.934Z,0
2017-01-18T03:45:01.795Z,0
2017-01-18T03:46:02.244Z,0
2017-01-18T03:47:01.958Z,0
2017-01-18T03:48:02.255Z,0
2017-01-18T03:49:01.922Z,0
2017-01-18T03:50:01.529Z,0
2017-01-18T03:51:02.287Z,0
2017-01-18T03:52:01.898Z,0
2017-01-18T03:53:02.248Z,0
2017-01-18T03:54:01.911Z,0
2017-01-18T03:55:02.271Z,0
2017-01-18T03:56:02.317Z,0
2017-01-18T03:57:01.910Z,0
2017-01-18T03:58:02.338Z,0
2017-01-18T03:59:02.246Z,0
2017-01-18T04:00:02.259Z,0
2017-01-18T04:01:01.966Z,0
2017-01-18T04:02:01.926Z,0
2017-01-18T04:03:02.878Z,0
2017-01-18T04:04:01.593Z,0
2017-01-18T04:05:02.352Z,0
2017-01-18T04:06:02.059Z,0
2017-01-18T04:07:02.114Z,0
2017-01-18T04:08:02.415Z,0
2017-01-18T04:09:01.629Z,0
2017-01-18T04:10:02.826Z,0
2017-01-18T04:11:02.439Z,0
2017-01-18T04:12:01.262Z,0
2017-01-18T04:13:02.009Z,0
2017-01-18T04:14:01.329Z,0
2017-01-18T04:15:02.076Z,0
2017-01-18T04:16:02.031Z,0
2017-01-18T04:17:02.536Z,0
2017-01-18T04:18:02.046Z,0
2017-01-18T04:19:02.710Z,0
2017-01-18T04:20:02.064Z,0
2017-01-18T04:21:02.329Z,0
2017-01-18T04:22:02.181Z,0
2017-01-18T04:23:04.059Z,0
2017-01-18T04:24:02.539Z,0
2017-01-18T04:25:02.252Z,0
2017-01-18T04:26:02.950Z,0
2017-01-18T04:27:02.173Z,0
2017-01-18T04:28:02.127Z,0
2017-01-18T04:29:02.232Z,0
2017-01-18T04:30:02.736Z,0
2017-01-18T04:31:02.542Z,0
2017-01-18T04:32:02.651Z,0
2017-01-18T04:33:01.891Z,0
2017-01-18T04:34:04.018Z,0
2017-01-18T04:35:01.864Z,0
2017-01-18T04:36:02.187Z,0
2017-01-18T04:37:02.290Z,0
2017-01-18T04:38:01.904Z,0
2017-01-18T04:39:02.310Z,0
2017-01-18T04:40:01.923Z,0
2017-01-18T04:41:02.618Z,0
2017-01-18T04:42:02.728Z,0
2017-01-18T04:43:02.687Z,0
2017-01-18T04:44:02.004Z,0
2017-01-18T04:45:04.095Z,0
2017-01-18T04:46:03.154Z,0
2017-01-18T04:47:01.920Z,0
2017-01-18T04:48:01.936Z,0
2017-01-18T04:49:02.333Z,0
2017-01-18T04:50:02.048Z,0
2017-01-18T04:51:02.730Z,0
2017-01-18T04:52:02.238Z,0
2017-01-18T04:53:01.631Z,0
2017-01-18T04:54:02.581Z,0
2017-01-18T04:55:02.383Z,0
2017-01-18T04:56:04.397Z,0
2017-01-18T04:57:03.189Z,0
2017-01-18T04:58:02.803Z,0
2017-01-18T04:59:02.437Z,0
2017-01-18T05:00:02.375Z,0
2017-01-18T05:01:02.091Z,0
2017-01-18T05:02:03.233Z,0
2017-01-18T05:03:02.749Z,0
2017-01-18T05:04:02.901Z,0
2017-01-18T05:05:02.806Z,0
2017-01-18T05:06:02.074Z,0
2017-01-18T05:07:04.502Z,0
2017-01-18T05:08:02.830Z,0
2017-01-18T05:09:02.891Z,0
2017-01-18T05:10:02.102Z,0
2017-01-18T05:11:02.159Z,0
2017-01-18T05:12:02.166Z,0
2017-01-18T05:13:02.522Z,0
2017-01-18T05:14:03.136Z,0
2017-01-18T05:15:02.542Z,0
2017-01-18T05:16:02.921Z,0
2017-01-18T05:17:03.397Z,0
2017-01-18T05:18:04.475Z,0
2017-01-18T05:19:03.360Z,0
2017-01-18T05:20:02.975Z,0
2017-01-18T05:21:02.932Z,0
2017-01-18T05:22:02.146Z,0
2017-01-18T05:23:03.099Z,0
2017-01-18T05:24:03.397Z,0
2017-01-18T05:25:03.312Z,0
2017-01-18T05:26:03.023Z,0
2017-01-18T05:27:02.886Z,0
2017-01-18T05:28:03.169Z,0
2017-01-18T05:29:04.648Z,0
2017-01-18T05:30:02.323Z,0
2017-01-18T05:31:03.410Z,0
2017-01-18T05:32:02.673Z,0
2017-01-18T05:33:03.078Z,0
2017-01-18T05:34:03.031Z,0
2017-01-18T05:35:02.301Z,0
2017-01-18T05:36:03.408Z,0
2017-01-18T05:37:02.757Z,0
2017-01-18T05:38:03.174Z,0
2017-01-18T05:39:01.882Z,0
2017-01-18T05:40:02.731Z,0
2017-01-18T05:41:02.740Z,0
2017-01-18T05:42:02.799Z,0
2017-01-18T05:43:02.906Z,0
2017-01-18T05:44:02.760Z,0
2017-01-18T05:45:03.249Z,0
2017-01-18T05:46:03.133Z,0
2017-01-18T05:47:03.837Z,0
2017-01-18T05:48:02.347Z,0
2017-01-18T05:49:03.477Z,0
2017-01-18T05:50:03.702Z,0
2017-01-18T05:51:03.214Z,0
2017-01-18T05:52:03.272Z,0
2017-01-18T05:53:02.783Z,0
2017-01-18T05:54:02.841Z,0
2017-01-18T05:55:03.241Z,0
2017-01-18T05:56:02.841Z,0
2017-01-18T05:57:03.310Z,0
2017-01-18T05:58:04.115Z,0
2017-01-18T05:59:03.329Z,0
2017-01-18T06:00:03.691Z,0
2017-01-18T06:01:03.290Z,0
2017-01-18T06:02:02.935Z,0
2017-01-18T06:03:02.562Z,0
2017-01-18T06:04:02.577Z,0
2017-01-18T06:05:02.880Z,0
2017-01-18T06:06:02.983Z,0
2017-01-18T06:07:03.738Z,0
2017-01-18T06:08:03.347Z,0
2017-01-18T06:09:02.563Z,0
2017-01-18T06:10:03.012Z,0
2017-01-18T06:11:03.969Z,0
2017-01-18T06:12:02.582Z,0
2017-01-18T06:13:03.737Z,0
2017-01-18T06:14:02.993Z,0
2017-01-18T06:15:03.405Z,0
2017-01-18T06:16:03.753Z,0
2017-01-18T06:17:03.019Z,0
2017-01-18T06:18:02.975Z,0
2017-01-18T06:19:03.096Z,0
2017-01-18T06:20:04.026Z,0
2017-01-18T06:21:03.205Z,0
2017-01-18T06:22:04.056Z,0
2017-01-18T06:23:03.859Z,0
2017-01-18T06:24:02.827Z,0
2017-01-18T06:25:03.526Z,0
2017-01-18T06:26:03.531Z,0
2017-01-18T06:27:03.444Z,0
2017-01-18T06:28:02.659Z,0
2017-01-18T06:29:02.746Z,0
2017-01-18T06:30:03.468Z,0
2017-01-18T06:31:04.577Z,0
2017-01-18T06:32:03.930Z,0
2017-01-18T06:33:04.094Z,0
2017-01-18T06:34:03.554Z,0
2017-01-18T06:35:03.317Z,0
2017-01-18T06:36:04.011Z,0
2017-01-18T06:37:02.780Z,0
2017-01-18T06:38:03.582Z,0
2017-01-18T06:39:03.981Z,0
2017-01-18T06:40:02.903Z,0
2017-01-18T06:41:02.812Z,0
2017-01-18T06:42:04.739Z,0
2017-01-18T06:43:03.222Z,0
2017-01-18T06:44:04.077Z,0
2017-01-18T06:45:03.633Z,0
2017-01-18T06:46:04.241Z,0
2017-01-18T06:47:03.664Z,0
2017-01-18T06:48:03.708Z,0
2017-01-18T06:49:03.305Z,0
2017-01-18T06:50:03.676Z,0
2017-01-18T06:51:04.030Z,0
2017-01-18T06:52:03.244Z,0
2017-01-18T06:53:04.699Z,0
2017-01-18T06:54:03.359Z,0
2017-01-18T06:55:04.220Z,0
2017-01-18T06:56:04.123Z,0
2017-01-18T06:57:04.131Z,0
2017-01-18T06:58:03.689Z,0
2017-01-18T06:59:03.460Z,0
2017-01-18T07:00:03.749Z,0
2017-01-18T07:01:03.712Z,0
2017-01-18T07:02:03.717Z,0
2017-01-18T07:03:03.332Z,0
2017-01-18T07:04:04.195Z,0
2017-01-18T07:05:03.396Z,0
2017-01-18T07:06:04.048Z,0
2017-01-18T07:07:03.466Z,0
2017-01-18T07:08:03.372Z,0
2017-01-18T07:09:03.384Z,0
2017-01-18T07:10:03.538Z,0
2017-01-18T07:11:03.398Z,0
2017-01-18T07:12:03.397Z,0
2017-01-18T07:13:03.011Z,0
2017-01-18T07:14:03.470Z,0
2017-01-18T07:15:03.974Z,0
2017-01-18T07:16:03.486Z,0
2017-01-18T07:17:03.942Z,0
2017-01-18T07:18:03.548Z,0
2017-01-18T07:19:03.852Z,0
2017-01-18T07:20:03.574Z,0
2017-01-18T07:21:03.131Z,0
2017-01-18T07:22:03.920Z,0
2017-01-18T07:23:03.089Z,0
2017-01-18T07:24:03.146Z,0
2017-01-18T07:25:03.116Z,0
2017-01-18T07:26:04.215Z,0
2017-01-18T07:27:03.172Z,0
2017-01-18T07:28:04.043Z,0
2017-01-18T07:29:03.234Z,0
2017-01-18T07:30:05.799Z,0
2017-01-18T07:31:03.647Z,0
2017-01-18T07:32:04.349Z,0
2017-01-18T07:33:02.823Z,0
2017-01-18T07:34:03.620Z,0
2017-01-18T07:35:04.038Z,0
2017-01-18T07:36:04.037Z,0
2017-01-18T07:37:04.340Z,0
2017-01-18T07:38:03.706Z,0
2017-01-18T07:39:04.035Z,5
2017-01-18T07:40:04.074Z,5
2017-01-18T07:41:03.730Z,5
2017-01-18T07:42:03.289Z,5
2017-01-18T07:43:03.696Z,5
2017-01-18T07:44:03.359Z,5
2017-01-18T07:45:03.762Z,5
2017-01-18T07:46:03.767Z,5
2017-01-18T07:47:04.176Z,5
2017-01-18T07:48:03.737Z,5
2017-01-18T07:49:03.691Z,5
2017-01-18T07:50:04.258Z,5
2017-01-18T07:51:04.305Z,5
2017-01-18T07:52:03.744Z,5
2017-01-18T07:53:03.487Z,5
2017-01-18T07:54:04.237Z,5
2017-01-18T07:55:03.795Z,5
2017-01-18T07:56:04.149Z,5
2017-01-18T07:57:03.416Z,5
2017-01-18T07:58:03.919Z,5
2017-01-18T07:59:04.570Z,5
2017-01-18T08:00:03.934Z,5
2017-01-18T08:01:04.258Z,5
2017-01-18T08:02:03.851Z,10
2017-01-18T08:03:04.262Z,10
2017-01-18T08:04:03.101Z,10
2017-01-18T08:05:04.226Z,10
2017-01-18T08:06:03.934Z,10
2017-01-18T08:07:04.294Z,10
2017-01-18T08:08:03.862Z,10
2017-01-18T08:09:03.861Z,15
2017-01-18T08:10:05.265Z,15
2017-01-18T08:11:03.529Z,15
2017-01-18T08:12:04.974Z,15
2017-01-18T08:13:03.943Z,20
2017-01-18T08:14:04.324Z,20
2017-01-18T08:15:04.015Z,25
2017-01-18T08:16:04.318Z,25
2017-01-18T08:17:03.595Z,25
2017-01-18T08:18:03.936Z,25
2017-01-18T08:19:04.051Z,25
2017-01-18T08:20:03.559Z,25
2017-01-18T08:21:05.108Z,25
2017-01-18T08:22:04.070Z,25
2017-01-18T08:23:05.128Z,25
2017-01-18T08:24:03.990Z,25
2017-01-18T08:25:03.947Z,25
2017-01-18T08:26:04.086Z,30
2017-01-18T08:27:04.059Z,30
2017-01-18T08:28:04.469Z,30
2017-01-18T08:29:04.526Z,35
2017-01-18T08:30:03.693Z,35
2017-01-18T08:31:04.490Z,35
2017-01-18T08:32:05.211Z,35
2017-01-18T08:33:04.458Z,35
2017-01-18T08:34:05.368Z,40
2017-01-18T08:35:03.708Z,40
2017-01-18T08:36:04.481Z,40
2017-01-18T08:37:04.103Z,40
2017-01-18T08:38:04.552Z,40
2017-01-18T08:39:04.556Z,40
2017-01-18T08:40:03.723Z,45
2017-01-18T08:41:03.787Z,40
2017-01-18T08:42:03.743Z,55
2017-01-18T08:43:05.428Z,50
2017-01-18T08:44:03.861Z,50
2017-01-18T08:45:05.459Z,60
2017-01-18T08:46:03.780Z,65
2017-01-18T08:47:04.385Z,70
2017-01-18T08:48:03.854Z,65
2017-01-18T08:49:03.459Z,70
2017-01-18T08:50:04.610Z,70
2017-01-18T08:51:04.269Z,70
2017-01-18T08:52:03.832Z,70
2017-01-18T08:53:04.730Z,70
2017-01-18T08:54:06.202Z,50
2017-01-18T08:55:03.964Z,55
2017-01-18T08:56:05.607Z,75
2017-01-18T08:57:04.274Z,80
2017-01-18T08:58:04.437Z,75
2017-01-18T08:59:04.793Z,75
2017-01-18T09:00:04.772Z,70
2017-01-18T09:01:03.921Z,70
2017-01-18T09:02:04.813Z,80
2017-01-18T09:03:04.330Z,85
2017-01-18T09:04:03.992Z,80
2017-01-18T09:05:05.821Z,85
2017-01-18T09:06:04.016Z,90
2017-01-18T09:07:06.003Z,95
2017-01-18T09:08:04.429Z,80
2017-01-18T09:09:05.335Z,85
2017-01-18T09:10:04.792Z,130
2017-01-18T09:11:04.009Z,120
2017-01-18T09:12:04.865Z,135
2017-01-18T09:13:04.923Z,140
2017-01-18T09:14:04.437Z,140
2017-01-18T09:15:04.896Z,135
2017-01-18T09:16:04.109Z,145
2017-01-18T09:17:05.017Z,160
2017-01-18T09:18:06.136Z,160
2017-01-18T09:19:04.546Z,155
2017-01-18T09:20:04.999Z,155
2017-01-18T09:21:05.019Z,150
2017-01-18T09:22:05.318Z,155
2017-01-18T09:23:04.239Z,155
2017-01-18T09:24:03.802Z,140
2017-01-18T09:25:04.608Z,150
2017-01-18T09:26:05.461Z,45
2017-01-18T09:27:04.625Z,45
2017-01-18T09:28:04.190Z,45
2017-01-18T09:29:06.637Z,45
2017-01-18T09:30:05.435Z,45
2017-01-18T09:31:05.322Z,45
2017-01-18T09:32:05.123Z,45
2017-01-18T09:33:03.965Z,55
2017-01-18T09:34:05.085Z,60
2017-01-18T09:35:05.051Z,55
2017-01-18T09:36:04.670Z,85
2017-01-18T09:37:04.301Z,65
2017-01-18T09:38:04.682Z,80
2017-01-18T09:39:05.140Z,70
2017-01-18T09:40:06.601Z,55
2017-01-18T09:41:05.162Z,60
2017-01-18T09:42:05.871Z,50
2017-01-18T09:43:04.731Z,50
2017-01-18T09:44:04.784Z,50
2017-01-18T09:45:04.400Z,50
2017-01-18T09:46:04.806Z,50
2017-01-18T09:47:04.768Z,50
2017-01-18T09:48:04.804Z,50
2017-01-18T09:49:04.930Z,55
2017-01-18T09:50:04.852Z,75
2017-01-18T09:51:06.847Z,65
2017-01-18T09:52:05.208Z,80
2017-01-18T09:53:06.025Z,60
2017-01-18T09:54:05.274Z,55
2017-01-18T09:55:05.651Z,70
2017-01-18T09:56:04.892Z,65
2017-01-18T09:57:04.501Z,60
2017-01-18T09:58:04.914Z,45
2017-01-18T09:59:05.018Z,50
2017-01-18T10:00:04.688Z,45
2017-01-18T10:01:04.890Z,45
2017-01-18T10:02:04.954Z,45
2017-01-18T10:03:04.907Z,45
2017-01-18T10:04:06.070Z,50
2017-01-18T10:05:04.970Z,45
2017-01-18T10:06:04.941Z,45
2017-01-18T10:07:05.390Z,40
2017-01-18T10:08:05.008Z,45
2017-01-18T10:09:05.356Z,45
2017-01-18T10:10:05.026Z,45
2017-01-18T10:11:05.476Z,45
2017-01-18T10:12:05.035Z,45
2017-01-18T10:13:05.046Z,45
2017-01-18T10:14:04.607Z,45
2017-01-18T10:15:06.555Z,45
2017-01-18T10:16:05.517Z,45
2017-01-18T10:17:04.732Z,45
2017-01-18T10:18:05.591Z,45
2017-01-18T10:19:05.099Z,45
2017-01-18T10:20:05.063Z,45
2017-01-18T10:21:05.511Z,40
2017-01-18T10:22:05.523Z,40
2017-01-18T10:23:05.477Z,40
2017-01-18T10:24:05.189Z,40
2017-01-18T10:25:04.704Z,40
2017-01-18T10:26:05.160Z,40
2017-01-18T10:27:05.194Z,40
2017-01-18T10:28:05.571Z,40
2017-01-18T10:29:06.032Z,45
2017-01-18T10:30:05.457Z,40
2017-01-18T10:31:05.111Z,40
2017-01-18T10:32:05.607Z,40
2017-01-18T10:33:05.873Z,40
2017-01-18T10:34:05.630Z,40
2017-01-18T10:35:05.635Z,40
2017-01-18T10:36:05.247Z,40
2017-01-18T10:37:05.206Z,35
2017-01-18T10:38:05.270Z,35
2017-01-18T10:39:05.277Z,35
2017-01-18T10:40:04.886Z,40
2017-01-18T10:41:06.133Z,40
2017-01-18T10:42:05.694Z,40
2017-01-18T10:43:05.705Z,40
2017-01-18T10:44:05.889Z,40
2017-01-18T10:45:05.426Z,40
2017-01-18T10:46:05.286Z,45
2017-01-18T10:47:06.135Z,45
2017-01-18T10:48:05.300Z,45
2017-01-18T10:49:04.924Z,45
2017-01-18T10:50:05.426Z,45
2017-01-18T10:51:04.589Z,45
2017-01-18T10:52:05.732Z,45
2017-01-18T10:53:05.393Z,45
2017-01-18T10:54:06.192Z,45
2017-01-18T10:55:06.265Z,45
2017-01-18T10:56:04.975Z,45
2017-01-18T10:57:05.557Z,45
2017-01-18T10:58:06.095Z,45
2017-01-18T10:59:05.155Z,45
2017-01-18T11:00:05.507Z,45
2017-01-18T11:01:06.306Z,45
2017-01-18T11:02:06.345Z,45
2017-01-18T11:03:05.877Z,45
2017-01-18T11:04:05.837Z,45
2017-01-18T11:05:05.054Z,50
2017-01-18T11:06:06.700Z,50
2017-01-18T11:07:05.959Z,50
2017-01-18T11:08:05.673Z,55
2017-01-18T11:09:05.942Z,55
2017-01-18T11:10:05.534Z,55
2017-01-18T11:11:06.038Z,55
2017-01-18T11:12:05.952Z,50
2017-01-18T11:13:05.560Z,50
2017-01-18T11:14:05.971Z,45
2017-01-18T11:15:05.927Z,45
2017-01-18T11:16:05.989Z,45
2017-01-18T11:17:07.051Z,45
2017-01-18T11:18:05.713Z,45
2017-01-18T11:19:06.774Z,40
2017-01-18T11:20:05.628Z,40
2017-01-18T11:21:06.432Z,45
2017-01-18T11:22:05.644Z,45
2017-01-18T11:23:05.653Z,40
2017-01-18T11:24:05.366Z,40
2017-01-18T11:25:05.668Z,40
2017-01-18T11:26:05.682Z,40
2017-01-18T11:27:06.485Z,45
2017-01-18T11:28:05.696Z,40
2017-01-18T11:29:04.862Z,40
2017-01-18T11:30:04.941Z,45
2017-01-18T11:31:05.728Z,45
2017-01-18T11:32:06.689Z,50
2017-01-18T11:33:06.107Z,40
2017-01-18T11:34:05.352Z,45
2017-01-18T11:35:06.205Z,45
2017-01-18T11:36:05.375Z,45
2017-01-18T11:37:06.170Z,45
2017-01-18T11:38:05.381Z,50
2017-01-18T11:39:06.139Z,45
2017-01-18T11:40:05.795Z,50
2017-01-18T11:41:07.225Z,50
2017-01-18T11:42:06.703Z,50
2017-01-18T11:43:05.087Z,50
2017-01-18T11:44:06.629Z,50
2017-01-18T11:45:05.890Z,50
2017-01-18T11:46:06.252Z,50
2017-01-18T11:47:05.462Z,50
2017-01-18T11:48:05.871Z,50
2017-01-18T11:49:05.478Z,50
2017-01-18T11:50:06.727Z,50
2017-01-18T11:51:05.947Z,50
2017-01-18T11:52:07.271Z,50
2017-01-18T11:53:06.712Z,50
2017-01-18T11:54:07.450Z,50
2017-01-18T11:55:05.979Z,55
2017-01-18T11:56:05.884Z,55
2017-01-18T11:57:05.898Z,55
2017-01-18T11:58:05.956Z,55
2017-01-18T11:59:05.219Z,55
2017-01-18T12:00:05.970Z,50
2017-01-18T12:01:06.084Z,40
2017-01-18T12:02:06.635Z,40
2017-01-18T12:03:05.996Z,35
2017-01-18T12:04:06.448Z,35
2017-01-18T12:05:05.720Z,35
2017-01-18T12:06:06.862Z,35
2017-01-18T12:07:05.596Z,35
2017-01-18T12:08:05.645Z,30
2017-01-18T12:09:05.656Z,30
2017-01-18T12:10:06.011Z,35
2017-01-18T12:11:06.073Z,35
2017-01-18T12:12:06.929Z,35
2017-01-18T12:13:06.080Z,35
2017-01-18T12:14:07.961Z,35
2017-01-18T12:15:06.449Z,35
2017-01-18T12:16:05.713Z,35
2017-01-18T12:17:06.119Z,35
2017-01-18T12:18:06.075Z,35
2017-01-18T12:19:06.081Z,35
2017-01-18T12:20:06.152Z,35
2017-01-18T12:21:05.853Z,35
2017-01-18T12:22:06.156Z,35
2017-01-18T12:23:06.510Z,35
2017-01-18T12:24:06.576Z,35
2017-01-18T12:25:06.233Z,35
2017-01-18T12:26:06.839Z,35
2017-01-18T12:27:06.201Z,35
2017-01-18T12:28:06.210Z,35
2017-01-18T12:29:06.220Z,35
2017-01-18T12:30:06.619Z,35
2017-01-18T12:31:06.631Z,35
2017-01-18T12:32:06.197Z,35
2017-01-18T12:33:06.252Z,35
2017-01-18T12:34:06.709Z,35
2017-01-18T12:35:06.769Z,35
2017-01-18T12:36:06.376Z,35
2017-01-18T12:37:06.787Z,35
2017-01-18T12:38:06.636Z,35
2017-01-18T12:39:05.958Z,35
2017-01-18T12:40:06.266Z,35
2017-01-18T12:41:05.475Z,35
2017-01-18T12:42:06.279Z,35
2017-01-18T12:43:06.442Z,35
2017-01-18T12:44:06.295Z,35
2017-01-18T12:45:07.296Z,35
2017-01-18T12:46:05.928Z,35
2017-01-18T12:47:06.619Z,35
2017-01-18T12:48:06.873Z,35
2017-01-18T12:49:06.385Z,35
2017-01-18T12:50:05.956Z,35
2017-01-18T12:51:06.508Z,35
2017-01-18T12:52:06.807Z,35
2017-01-18T12:53:06.021Z,35
2017-01-18T12:54:07.272Z,35
2017-01-18T12:55:06.386Z,35
2017-01-18T12:56:07.336Z,35
2017-01-18T12:57:06.852Z,35
2017-01-18T12:58:07.019Z,35
2017-01-18T12:59:06.472Z,35
2017-01-18T13:00:06.535Z,35
2017-01-18T13:01:06.433Z,35
2017-01-18T13:02:06.887Z,35
2017-01-18T13:03:06.500Z,35
2017-01-18T13:04:06.589Z,35
2017-01-18T13:05:07.168Z,35
2017-01-18T13:06:07.371Z,35
2017-01-18T13:07:07.793Z,35
2017-01-18T13:08:06.098Z,30
2017-01-18T13:09:07.449Z,30
2017-01-18T13:10:05.822Z,30
2017-01-18T13:11:07.050Z,30
2017-01-18T13:12:06.978Z,30
2017-01-18T13:13:06.136Z,30
2017-01-18T13:14:06.647Z,30
2017-01-18T13:15:06.948Z,30
2017-01-18T13:16:07.008Z,30
2017-01-18T13:17:07.409Z,30
2017-01-18T13:18:08.585Z,30
2017-01-18T13:19:06.689Z,30
2017-01-18T13:20:07.887Z,30
2017-01-18T13:21:06.656Z,30
2017-01-18T13:22:07.450Z,30
2017-01-18T13:23:06.275Z,30
2017-01-18T13:24:06.284Z,30
2017-01-18T13:25:06.736Z,30
2017-01-18T13:26:06.643Z,30
2017-01-18T13:27:06.313Z,30
2017-01-18T13:28:07.113Z,30
2017-01-18T13:29:08.989Z,30
2017-01-18T13:30:07.475Z,30
2017-01-18T13:31:08.281Z,30
2017-01-18T13:32:06.799Z,30
2017-01-18T13:33:07.148Z,30
2017-01-18T13:34:07.606Z,35
2017-01-18T13:35:07.118Z,35
2017-01-18T13:36:06.728Z,30
2017-01-18T13:37:06.389Z,30
2017-01-18T13:38:07.343Z,30
2017-01-18T13:39:07.247Z,30
2017-01-18T13:40:07.326Z,30
2017-01-18T13:41:06.527Z,25
2017-01-18T13:42:08.779Z,25
2017-01-18T13:43:06.787Z,30
2017-01-18T13:44:06.398Z,30
2017-01-18T13:45:06.162Z,30
2017-01-18T13:46:06.866Z,30
2017-01-18T13:47:06.036Z,35
2017-01-18T13:48:06.932Z,30
2017-01-18T13:49:06.891Z,35
2017-01-18T13:50:07.295Z,30
2017-01-18T13:51:07.405Z,30
2017-01-18T13:52:07.365Z,30
2017-01-18T13:53:09.217Z,35
2017-01-18T13:54:07.333Z,30
2017-01-18T13:55:06.915Z,35
2017-01-18T13:56:07.839Z,30
2017-01-18T13:57:06.959Z,30
2017-01-18T13:58:06.937Z,35
2017-01-18T13:59:06.927Z,30
2017-01-18T14:00:07.383Z,30
2017-01-18T14:01:06.643Z,30
2017-01-18T14:02:07.806Z,30
2017-01-18T14:03:06.664Z,25
2017-01-18T14:04:06.963Z,25
2017-01-18T14:05:07.019Z,25
2017-01-18T14:06:06.685Z,25
2017-01-18T14:07:06.595Z,25
2017-01-18T14:08:07.441Z,25
2017-01-18T14:09:07.447Z,25
2017-01-18T14:10:07.462Z,25
2017-01-18T14:11:07.871Z,25
2017-01-18T14:12:06.286Z,25
2017-01-18T14:13:08.390Z,25
2017-01-18T14:14:07.542Z,25
2017-01-18T14:15:07.656Z,25
2017-01-18T14:16:07.161Z,30
2017-01-18T14:17:07.069Z,30
2017-01-18T14:18:06.682Z,25
2017-01-18T14:19:07.092Z,25
2017-01-18T14:20:07.489Z,20
2017-01-18T14:21:08.048Z,20
2017-01-18T14:22:06.773Z,20
2017-01-18T14:23:07.171Z,20
2017-01-18T14:24:08.783Z,20
2017-01-18T14:25:06.790Z,20
2017-01-18T14:26:08.099Z,20
2017-01-18T14:27:07.546Z,20
2017-01-18T14:28:07.606Z,20
2017-01-18T14:29:06.879Z,20
2017-01-18T14:30:07.692Z,20
2017-01-18T14:31:07.644Z,20
2017-01-18T14:32:07.246Z,20